createdAt,value
2023-03-20T00:02:54.127Z,1.00
2023-03-20T00:05:23.506Z,1.00
2023-03-20T00:07:51.275Z,1.00
2023-03-20T00:10:22.554Z,1.00
2023-03-20T00:12:52.156Z,1.00
2023-03-20T00:15:38.375Z,1.00
2023-03-20T00:18:18.719Z,1.00
2023-03-20T00:20:51.019Z,1.00
2023-03-20T00:23:18.629Z,1.00
2023-03-20T00:25:47.230Z,1.00
2023-03-20T00:28:37.678Z,1.00
2023-03-20T00:31:07.034Z,1.00
2023-03-20T00:33:34.306Z,1.00
2023-03-20T00:39:26.369Z,1.00
2023-03-20T00:41:56.297Z,13.30
2023-03-20T00:44:47.850Z,14.90
2023-03-20T00:47:20.822Z,17.00
2023-03-20T00:50:20.885Z,31.00
2023-03-20T00:52:48.546Z,24.90
2023-03-20T00:55:16.021Z,22.50
2023-03-20T00:58:04.225Z,15.10
2023-03-20T01:00:31.454Z,1.00
2023-03-20T01:02:59.096Z,1.00
2023-03-20T01:05:29.156Z,1.00
2023-03-20T01:07:56.611Z,1.00
2023-03-20T01:10:28.306Z,1.00
2023-03-20T01:13:02.914Z,1.00
2023-03-20T01:15:34.948Z,1.00
2023-03-20T01:18:02.282Z,1.00
2023-03-20T01:20:31.027Z,1.00
2023-03-20T01:22:58.302Z,1.00
2023-03-20T01:25:26.176Z,1.00
2023-03-20T01:27:55.235Z,1.00
2023-03-20T01:30:26.436Z,1.00
2023-03-20T01:32:54.073Z,1.00
2023-03-20T01:35:27.493Z,1.00
2023-03-20T01:37:56.626Z,1.00
2023-03-20T01:40:45.579Z,1.00
2023-03-20T01:43:17.314Z,1.00
2023-03-20T01:46:26.104Z,1.00
2023-03-20T01:49:08.662Z,1.00
2023-03-20T01:51:37.847Z,1.00
2023-03-20T01:54:19.172Z,1.00
2023-03-20T01:57:16.861Z,1.00
2023-03-20T01:59:50.804Z,1.00
2023-03-20T02:02:25.888Z,1.00
2023-03-20T02:04:58.570Z,1.00
2023-03-20T02:07:26.259Z,1.00
2023-03-20T02:10:19.839Z,1.00
2023-03-20T02:12:54.120Z,1.00
2023-03-20T02:15:37.516Z,1.00
2023-03-20T02:18:12.755Z,1.00
2023-03-20T02:21:04.306Z,1.00
2023-03-20T02:24:09.927Z,1.00
2023-03-20T02:26:56.608Z,1.00
2023-03-20T02:29:58.274Z,1.00
2023-03-20T02:33:10.348Z,1.00
2023-03-20T02:35:47.514Z,1.00
2023-03-20T02:38:41.049Z,1.00
2023-03-20T02:41:20.441Z,1.00
2023-03-20T02:44:14.174Z,1.00
2023-03-20T02:46:57.661Z,1.00
2023-03-20T02:49:45.538Z,1.00
2023-03-20T02:52:43.930Z,1.00
2023-03-20T02:55:23.986Z,1.00
2023-03-20T02:58:28.797Z,1.00
2023-03-20T03:01:06.294Z,1.00
2023-03-20T03:03:52.196Z,1.00
2023-03-20T03:06:32.847Z,1.00
2023-03-20T03:09:07.738Z,1.00
2023-03-20T03:11:38.524Z,1.00
2023-03-20T03:14:07.317Z,1.00
2023-03-20T03:16:38.056Z,1.00
2023-03-20T03:19:19.623Z,1.00
2023-03-20T03:21:47.985Z,1.00
2023-03-20T03:24:41.842Z,1.00
2023-03-20T03:27:41.534Z,1.00
2023-03-20T03:30:16.874Z,1.00
2023-03-20T03:32:51.281Z,1.00
2023-03-20T03:35:21.342Z,1.00
2023-03-20T03:38:02.736Z,1.00
2023-03-20T03:41:22.628Z,1.00
2023-03-20T03:44:27.210Z,1.00
2023-03-20T03:47:25.591Z,1.00
2023-03-20T03:50:00.992Z,1.00
2023-03-20T03:52:31.693Z,1.00
2023-03-20T03:55:08.667Z,1.00
2023-03-20T03:57:46.195Z,1.00
2023-03-20T04:00:20.772Z,1.00
2023-03-20T04:02:52.560Z,1.00
2023-03-20T04:05:21.461Z,1.00
2023-03-20T04:07:53.356Z,1.00
2023-03-20T04:10:20.271Z,1.00
2023-03-20T04:12:47.781Z,1.00
2023-03-20T04:15:16.762Z,1.00
2023-03-20T04:17:45.097Z,1.00
2023-03-20T04:20:16.264Z,1.00
2023-03-20T04:22:43.578Z,1.00
2023-03-20T04:25:19.670Z,1.00
2023-03-20T04:27:47.028Z,1.00
2023-03-20T04:30:24.897Z,1.00
2023-03-20T04:33:10.916Z,1.00
2023-03-20T04:36:00.954Z,1.00
2023-03-20T04:38:28.116Z,1.00
2023-03-20T04:40:55.981Z,1.00
2023-03-20T04:43:23.863Z,1.00
2023-03-20T04:45:51.649Z,1.00
2023-03-20T04:48:28.216Z,1.00
2023-03-20T04:50:55.444Z,1.00
2023-03-20T04:53:29.143Z,1.00
2023-03-20T04:55:56.220Z,1.00
2023-03-20T04:58:23.742Z,1.00
2023-03-20T05:00:51.193Z,1.00
2023-03-20T05:03:18.205Z,1.00
2023-03-20T05:05:45.483Z,1.00
2023-03-20T05:08:12.964Z,1.00
2023-03-20T05:10:40.885Z,1.00
2023-03-20T05:13:47.745Z,1.00
2023-03-20T05:16:26.803Z,1.00
2023-03-20T05:19:19.017Z,1.00
2023-03-20T05:21:51.680Z,1.00
2023-03-20T05:24:18.770Z,1.00
2023-03-20T05:27:08.705Z,1.00
2023-03-20T05:30:09.761Z,1.00
2023-03-20T05:33:03.066Z,1.00
2023-03-20T05:35:48.409Z,1.00
2023-03-20T05:38:27.311Z,1.00
2023-03-20T05:41:20.466Z,1.00
2023-03-20T05:44:07.771Z,1.00
2023-03-20T05:46:55.348Z,1.00
2023-03-20T05:49:50.680Z,1.00
2023-03-20T05:52:37.987Z,1.00
2023-03-20T05:55:34.434Z,1.00
2023-03-20T05:58:13.048Z,1.00
2023-03-20T06:00:46.346Z,11.00
2023-03-20T06:03:33.653Z,1.00
2023-03-20T06:06:09.897Z,1.00
2023-03-20T06:08:37.528Z,1.00
2023-03-20T06:11:06.758Z,1.00
2023-03-20T06:13:37.802Z,1.20
2023-03-20T06:16:05.902Z,12.00
2023-03-20T06:18:34.043Z,37.50
2023-03-20T06:21:02.799Z,62.20
2023-03-20T06:23:30.605Z,86.40
2023-03-20T06:26:05.019Z,99.90
2023-03-20T06:28:43.831Z,99.90
2023-03-20T06:31:11.309Z,99.90
2023-03-20T06:33:38.758Z,99.90
2023-03-20T06:36:06.132Z,99.90
2023-03-20T06:38:34.112Z,59.80
2023-03-20T06:41:07.176Z,22.60
2023-03-20T06:43:35.241Z,13.40
2023-03-20T06:46:03.784Z,19.10
2023-03-20T06:48:32.551Z,13.70
2023-03-20T06:51:04.067Z,1.00
2023-03-20T06:53:36.992Z,1.00
2023-03-20T06:56:06.901Z,1.00
2023-03-20T06:58:34.066Z,1.00
2023-03-20T07:01:01.358Z,1.00
2023-03-20T07:03:30.469Z,1.00
2023-03-20T07:06:01.499Z,1.00
2023-03-20T07:08:29.465Z,1.00
2023-03-20T07:10:56.542Z,1.00
2023-03-20T07:13:23.996Z,1.00
2023-03-20T07:16:03.682Z,1.00
2023-03-20T07:18:35.548Z,1.00
2023-03-20T07:21:05.264Z,1.00
2023-03-20T07:23:34.648Z,1.00
2023-03-20T07:26:06.345Z,1.00
2023-03-20T07:28:34.500Z,1.00
2023-03-20T07:32:26.351Z,1.00
2023-03-20T07:34:55.052Z,1.00
2023-03-20T07:37:22.221Z,1.00
2023-03-20T07:40:25.473Z,1.00
2023-03-20T07:47:05.468Z,1.00
2023-03-20T07:49:32.995Z,1.00
2023-03-20T07:52:00.700Z,1.00
2023-03-20T07:54:27.906Z,1.00
2023-03-20T07:56:57.945Z,1.00
2023-03-20T07:59:25.461Z,1.00
2023-03-20T08:01:52.523Z,1.00
2023-03-20T08:04:22.729Z,1.00
2023-03-20T08:06:52.202Z,1.00
2023-03-20T08:09:19.549Z,1.00
2023-03-20T08:11:47.356Z,1.00
2023-03-20T08:14:33.435Z,1.00
2023-03-20T08:17:13.616Z,1.00
2023-03-20T08:19:54.583Z,1.00
2023-03-20T08:22:21.868Z,1.00
2023-03-20T08:27:39.255Z,1.00
2023-03-20T08:30:09.034Z,1.00
2023-03-20T08:32:41.376Z,1.00
2023-03-20T08:35:25.754Z,1.00
2023-03-20T08:37:58.107Z,1.00
2023-03-20T08:40:29.583Z,1.00
2023-03-20T08:43:07.476Z,1.00
2023-03-20T08:45:43.948Z,1.00
2023-03-20T08:48:25.010Z,1.00
2023-03-20T08:50:52.378Z,1.00
2023-03-20T08:53:49.750Z,1.00
2023-03-20T08:56:17.598Z,1.00
2023-03-20T08:58:44.876Z,1.00
2023-03-20T09:01:14.224Z,1.00
2023-03-20T09:03:43.244Z,1.00
2023-03-20T09:06:11.336Z,1.00
2023-03-20T09:08:38.839Z,1.00
2023-03-20T09:14:06.379Z,1.00
2023-03-20T09:16:33.947Z,1.00
2023-03-20T09:19:02.182Z,1.00
2023-03-20T09:21:29.183Z,1.00
2023-03-20T09:23:56.265Z,1.00
2023-03-20T09:27:13.942Z,99.90
2023-03-20T09:30:07.336Z,99.90
2023-03-20T09:32:35.518Z,99.90
2023-03-20T09:35:03.589Z,99.90
2023-03-20T09:37:30.751Z,99.90
2023-03-20T09:40:29.133Z,99.90
2023-03-20T09:43:03.260Z,99.90
2023-03-20T09:45:47.929Z,99.90
2023-03-20T09:48:25.556Z,99.90
2023-03-20T09:51:06.091Z,99.90
2023-03-20T09:54:24.398Z,99.90
2023-03-20T09:57:20.420Z,99.90
2023-03-20T09:59:48.665Z,99.90
2023-03-20T10:02:24.583Z,99.90
2023-03-20T10:04:56.067Z,99.90
2023-03-20T10:07:23.517Z,99.90
2023-03-20T10:09:52.520Z,99.90
2023-03-20T10:12:51.672Z,99.90
2023-03-20T10:15:28.180Z,99.90
2023-03-20T10:18:07.575Z,99.90
2023-03-20T10:20:51.478Z,99.90
2023-03-20T10:23:41.450Z,99.90
2023-03-20T10:26:20.959Z,99.90
2023-03-20T10:28:53.768Z,99.90
2023-03-20T10:31:44.492Z,99.90
2023-03-20T10:34:32.523Z,99.90
2023-03-20T10:37:36.014Z,99.90
2023-03-20T10:40:27.267Z,99.90
2023-03-20T10:42:59.198Z,99.90
2023-03-20T10:45:43.312Z,99.90
2023-03-20T10:48:17.406Z,99.90
2023-03-20T10:51:04.022Z,99.90
2023-03-20T10:53:37.829Z,99.90
2023-03-20T10:56:17.194Z,99.90
2023-03-20T10:58:49.301Z,99.90
2023-03-20T11:01:16.541Z,99.90
2023-03-20T11:03:46.701Z,99.90
2023-03-20T11:06:31.887Z,99.90
2023-03-20T11:09:18.773Z,99.90
2023-03-20T11:11:51.943Z,99.90
2023-03-20T11:14:27.135Z,99.90
2023-03-20T11:16:56.152Z,99.90
2023-03-20T11:19:24.815Z,99.90
2023-03-20T11:21:56.175Z,99.90
2023-03-20T11:24:35.105Z,99.90
2023-03-20T11:27:17.090Z,99.90
2023-03-20T11:29:49.178Z,99.90
2023-03-20T11:32:22.380Z,99.90
2023-03-20T11:34:49.767Z,99.90
2023-03-20T11:37:27.125Z,99.90
2023-03-20T11:39:59.213Z,99.90
2023-03-20T11:42:30.550Z,99.90
2023-03-20T11:45:06.310Z,99.90
2023-03-20T11:47:36.134Z,99.90
2023-03-20T11:50:27.641Z,99.90
2023-03-20T11:52:54.907Z,99.90
2023-03-20T11:55:35.998Z,99.90
2023-03-20T11:58:05.937Z,99.90
2023-03-20T12:00:42.438Z,99.90
2023-03-20T12:03:37.338Z,99.90
2023-03-20T12:06:07.209Z,99.90
2023-03-20T12:08:37.243Z,99.90
2023-03-20T12:11:22.061Z,99.90
2023-03-20T12:13:52.055Z,99.90
2023-03-20T12:16:25.317Z,99.90
2023-03-20T12:19:06.593Z,99.90
2023-03-20T12:21:43.392Z,99.90
2023-03-20T12:24:36.722Z,99.90
2023-03-20T12:27:35.702Z,99.90
2023-03-20T12:30:33.271Z,99.90
2023-03-20T12:33:06.919Z,99.90
2023-03-20T12:35:44.783Z,99.90
2023-03-20T12:38:24.824Z,99.90
2023-03-20T12:41:26.488Z,99.90
2023-03-20T12:44:08.656Z,99.90
2023-03-20T12:46:43.851Z,99.90
2023-03-20T12:49:22.076Z,99.90
2023-03-20T12:52:20.453Z,99.90
2023-03-20T12:55:19.351Z,99.90
2023-03-20T12:58:09.328Z,99.90
2023-03-20T13:00:55.263Z,99.90
2023-03-20T13:04:06.297Z,99.90
2023-03-20T13:06:53.551Z,99.90
2023-03-20T13:09:58.472Z,99.90
2023-03-20T13:12:49.405Z,99.90
2023-03-20T13:15:34.662Z,99.90
2023-03-20T13:18:07.318Z,99.90
2023-03-20T13:20:41.406Z,99.90
2023-03-20T13:23:23.135Z,99.90
2023-03-20T13:26:00.812Z,99.90
2023-03-20T13:28:53.590Z,99.90
2023-03-20T13:31:42.992Z,99.90
2023-03-20T13:34:31.857Z,99.90
2023-03-20T13:37:23.856Z,99.90
2023-03-20T13:40:01.226Z,99.90
2023-03-20T13:42:51.981Z,99.90
2023-03-20T13:45:41.835Z,99.90
2023-03-20T13:48:30.024Z,99.90
2023-03-20T13:51:10.512Z,99.90
2023-03-20T13:54:37.112Z,99.90
2023-03-20T13:57:16.907Z,99.90
2023-03-20T14:00:01.321Z,99.90
2023-03-20T14:02:53.337Z,99.90
2023-03-20T14:05:25.962Z,99.90
2023-03-20T14:07:58.070Z,99.90
2023-03-20T14:10:25.060Z,99.90
2023-03-20T14:12:59.969Z,99.90
2023-03-20T14:15:38.633Z,99.90
2023-03-20T14:18:16.542Z,99.90
2023-03-20T14:20:52.935Z,99.90
2023-03-20T14:23:37.421Z,99.90
2023-03-20T14:26:26.162Z,99.90
2023-03-20T14:29:00.136Z,99.90
2023-03-20T14:31:50.791Z,99.90
2023-03-20T14:34:28.048Z,99.90
2023-03-20T14:41:25.522Z,99.90
2023-03-20T14:44:55.314Z,99.90
2023-03-20T14:47:52.728Z,99.90
2023-03-20T14:50:26.242Z,99.90
2023-03-20T14:53:07.987Z,99.90
2023-03-20T14:55:51.890Z,99.90
2023-03-20T14:58:51.889Z,99.90
2023-03-20T15:01:21.885Z,99.90
2023-03-20T15:03:57.645Z,99.90
2023-03-20T15:06:29.686Z,99.90
2023-03-20T15:09:07.106Z,99.90
2023-03-20T15:11:35.224Z,99.90
2023-03-20T15:14:07.333Z,99.90
2023-03-20T15:16:36.669Z,99.90
2023-03-20T15:19:15.599Z,99.90
2023-03-20T15:21:45.398Z,99.90
2023-03-20T15:24:21.614Z,99.90
2023-03-20T15:26:53.023Z,99.90
2023-03-20T15:29:20.767Z,99.90
2023-03-20T15:32:12.429Z,99.90
2023-03-20T15:34:42.610Z,99.90
2023-03-20T15:37:17.830Z,99.90
2023-03-20T15:40:00.687Z,99.90
2023-03-20T15:42:32.075Z,99.90
2023-03-20T15:45:08.202Z,99.90
2023-03-20T15:48:07.088Z,99.90
2023-03-20T15:50:37.562Z,99.90
2023-03-20T15:53:08.247Z,99.90
2023-03-20T15:55:36.838Z,99.90
2023-03-20T15:58:05.346Z,99.90
2023-03-20T16:00:39.987Z,99.90
2023-03-20T16:03:19.318Z,99.90
2023-03-20T16:05:50.075Z,99.90
2023-03-20T16:12:02.203Z,99.90
2023-03-20T16:14:34.922Z,99.90
2023-03-20T16:17:04.120Z,99.90
2023-03-20T16:19:31.584Z,99.90
2023-03-20T16:22:13.451Z,99.90
2023-03-20T16:24:40.920Z,99.90
2023-03-20T16:31:36.536Z,99.90
2023-03-20T16:34:09.653Z,99.90
2023-03-20T16:36:38.525Z,99.90
2023-03-20T16:39:21.709Z,99.90
2023-03-20T16:42:01.269Z,99.90
2023-03-20T16:44:33.668Z,99.90
2023-03-20T16:47:16.837Z,99.90
2023-03-20T16:49:53.778Z,99.90
2023-03-20T16:52:29.668Z,99.90
2023-03-20T16:54:58.782Z,99.90
2023-03-20T16:57:27.385Z,99.90
2023-03-20T17:00:12.740Z,99.90
2023-03-20T17:03:57.237Z,99.90
2023-03-20T17:06:36.079Z,99.90
2023-03-20T17:09:24.310Z,99.90
2023-03-20T17:12:01.437Z,99.90
2023-03-20T17:14:31.933Z,99.90
2023-03-20T17:17:00.470Z,99.90
2023-03-20T17:19:43.148Z,99.90
2023-03-20T17:22:19.181Z,99.90
2023-03-20T17:24:46.805Z,99.90
2023-03-20T17:27:23.280Z,99.90
2023-03-20T17:29:56.744Z,99.90
2023-03-20T17:32:27.238Z,99.90
2023-03-20T17:35:00.262Z,99.90
2023-03-20T17:37:50.298Z,99.90
2023-03-20T17:40:30.395Z,99.90
2023-03-20T17:43:00.996Z,99.90
2023-03-20T17:45:28.426Z,99.90
2023-03-20T17:47:55.760Z,99.90
2023-03-20T17:50:34.246Z,99.90
2023-03-20T17:53:02.496Z,99.90
2023-03-20T17:55:37.160Z,99.90
2023-03-20T17:58:13.969Z,99.90
2023-03-20T18:00:45.248Z,99.90
2023-03-20T18:03:18.219Z,99.90
2023-03-20T18:05:57.462Z,99.90
2023-03-20T18:08:27.980Z,99.90
2023-03-20T18:11:08.982Z,99.90
2023-03-20T18:13:40.611Z,99.90
2023-03-20T18:16:42.112Z,99.90
2023-03-20T18:19:26.932Z,99.90
2023-03-20T18:21:54.195Z,99.90
2023-03-20T18:24:22.696Z,99.90
2023-03-20T18:27:01.703Z,99.90
2023-03-20T18:29:29.015Z,99.90
2023-03-20T18:31:56.148Z,99.90
2023-03-20T18:34:27.734Z,99.90
2023-03-20T18:36:54.972Z,99.90
2023-03-20T18:39:24.914Z,99.90
2023-03-20T18:41:52.517Z,99.90
2023-03-20T18:44:19.946Z,99.90
2023-03-20T18:46:57.133Z,99.90
2023-03-20T18:49:24.482Z,99.90
2023-03-20T18:51:53.321Z,99.90
2023-03-20T18:54:20.341Z,99.90
2023-03-20T18:56:50.136Z,99.90
2023-03-20T18:59:17.718Z,99.90
2023-03-20T19:01:46.390Z,99.90
2023-03-20T19:04:13.775Z,99.90
2023-03-20T19:06:51.326Z,99.90
2023-03-20T19:12:17.347Z,99.90
2023-03-20T19:14:46.699Z,99.90
2023-03-20T19:17:19.933Z,99.90
2023-03-20T19:20:14.752Z,99.90
2023-03-20T19:22:47.585Z,99.90
2023-03-20T19:25:23.396Z,99.90
2023-03-20T19:31:32.184Z,99.90
2023-03-20T19:34:01.644Z,99.90
2023-03-20T19:36:39.769Z,99.90
2023-03-20T19:39:10.975Z,99.90
2023-03-20T19:41:55.060Z,99.90
2023-03-20T19:44:27.329Z,99.90
2023-03-20T19:51:00.041Z,99.90
2023-03-20T19:57:38.567Z,99.90
2023-03-20T20:00:55.684Z,99.90
2023-03-20T20:03:40.474Z,99.90
2023-03-20T20:06:09.888Z,1.00
2023-03-20T21:16:15.614Z,1.00
2023-03-20T21:18:43.483Z,1.00
2023-03-20T21:21:19.486Z,1.00
2023-03-20T21:34:31.699Z,1.00
2023-03-20T21:38:22.924Z,1.00
2023-03-20T21:56:41.896Z,1.00
2023-03-20T22:02:05.859Z,1.00
2023-03-20T22:09:04.707Z,1.00
2023-03-20T22:11:52.275Z,1.00
2023-03-20T22:18:19.196Z,1.00
2023-03-20T22:30:31.337Z,1.00
2023-03-20T22:33:44.642Z,1.00
2023-03-20T22:47:49.942Z,1.00
2023-03-20T22:58:59.069Z,1.00
2023-03-20T23:01:26.999Z,1.00
2023-03-20T23:03:57.830Z,1.00
2023-03-20T23:06:27.407Z,1.00
2023-03-20T23:08:58.376Z,1.00
2023-03-20T23:11:28.616Z,1.00
2023-03-20T23:13:56.549Z,1.00
2023-03-20T23:16:24.331Z,1.00
2023-03-20T23:18:51.717Z,1.00
2023-03-20T23:21:19.312Z,1.00
2023-03-20T23:23:46.445Z,1.00
2023-03-20T23:26:23.300Z,1.00
2023-03-20T23:28:53.659Z,1.00
2023-03-20T23:31:26.154Z,1.00
2023-03-20T23:33:58.351Z,1.00
2023-03-20T23:36:37.322Z,1.00
2023-03-20T23:42:29.196Z,1.00
2023-03-20T23:45:02.146Z,1.00
2023-03-20T23:47:44.493Z,1.00
2023-03-20T23:50:20.545Z,1.00
2023-03-20T23:52:57.151Z,1.00
2023-03-20T23:55:32.644Z,1.00
2023-03-20T23:58:01.300Z,1.00
